Time;durP1;ratioP1;P1;durP2;ratioP2;P2;SDS_P1;SDS_P2;PMS_P1;PMS_P2;Temp;Humidity;BMP_temperature;BMP_pressure;BME280_temperature;BME280_humidity;BME280_pressure;Samples;Min_cycle;Max_cycle;Signal;HPM_P1;HPM_P2
2023/10/18 00:01:31;;;;;;;78.15;15.98;;;;;;;;;;5086660;28;20020;-44
2023/10/18 00:03:57;;;;;;;92.10;29.98;;;;;;;;;;5086301;28;20032;-46
2023/10/18 00:06:26;;;;;;;78.55;34.30;;;;;;;;;;5086264;28;20399;-41
2023/10/18 00:09:32;;;;;;;57.20;22.20;;;;;;;;;;5086486;28;20029;-41
2023/10/18 00:11:48;;;;;;;45.15;16.17;;;;;;;;;;5086042;28;20028;-45
2023/10/18 00:14:14;;;;;;;34.25;13.60;;;;;;;;;;5086320;28;20028;-39
2023/10/18 00:16:41;;;;;;;30.02;12.13;;;;;;;;;;5085718;28;20216;-46
2023/10/18 00:19:08;;;;;;;24.70;11.00;;;;;;;;;;5086159;28;20092;-40
2023/10/18 00:21:36;;;;;;;18.38;8.18;;;;;;;;;;5085969;28;20081;-39
2023/10/18 00:24:02;;;;;;;19.58;8.45;;;;;;;;;;5085883;28;20029;-40
2023/10/18 00:26:29;;;;;;;16.13;7.22;;;;;;;;;;5085747;28;20066;-41
2023/10/18 00:28:56;;;;;;;14.50;8.50;;;;;;;;;;5085741;28;20078;-42
2023/10/18 00:31:22;;;;;;;21.38;10.82;;;;;;;;;;5085584;28;20033;-39
2023/10/18 00:33:49;;;;;;;38.10;17.30;;;;;;;;;;5085715;28;20064;-44
2023/10/18 00:36:19;;;;;;;43.03;22.60;;;;;;;;;;5085532;28;20039;-46
2023/10/18 00:38:46;;;;;;;45.40;25.10;;;;;;;;;;5085563;28;20044;-43
2023/10/18 00:41:18;;;;;;;44.63;25.52;;;;;;;;;;5085495;28;20092;-45
2023/10/18 00:43:44;;;;;;;;;;;;;;;;;;5081912;28;20025;-43
2023/10/18 00:46:13;;;;;;;32.97;16.23;;;;;;;;;;5074191;28;19915;-40
2023/10/18 00:48:41;;;;;;;31.02;12.38;;;;;;;;;;5069342;28;20033;-47
2023/10/18 00:51:11;;;;;;;22.40;9.75;;;;;;;;;;5065265;28;20366;-42
2023/10/18 00:53:42;;;;;;;21.52;9.57;;;;;;;;;;5065185;28;20025;-43
2023/10/18 00:56:11;;;;;;;17.77;8.00;;;;;;;;;;5065118;28;20081;-40
2023/10/18 00:58:40;;;;;;;18.88;6.93;;;;;;;;;;5064905;28;20033;-40
2023/10/18 01:01:11;;;;;;;17.65;6.70;;;;;;;;;;5064959;28;20396;-44
2023/10/18 01:03:38;;;;;;;16.17;6.50;;;;;;;;;;5066332;28;20087;-37
2023/10/18 01:06:05;;;;;;;11.82;5.93;;;;;;;;;;5076164;28;20036;-39
2023/10/18 01:08:36;;;;;;;13.70;4.97;;;;;;;;;;5069855;28;20096;-44
2023/10/18 01:11:04;;;;;;;12.15;5.25;;;;;;;;;;5081863;28;20377;-41
2023/10/18 01:13:34;;;;;;;13.82;5.68;;;;;;;;;;5079299;28;20150;-44
2023/10/18 01:16:06;;;;;;;13.90;5.43;;;;;;;;;;5076203;28;20032;-38
2023/10/18 01:18:32;;;;;;;17.13;5.83;;;;;;;;;;5065208;28;20083;-44
2023/10/18 01:21:00;;;;;;;16.88;5.30;;;;;;;;;;5065054;28;20020;-38
2023/10/18 01:23:27;;;;;;;13.80;5.05;;;;;;;;;;5070739;28;20064;-38
2023/10/18 01:25:54;;;;;;;18.17;5.20;;;;;;;;;;5074139;28;20036;-41
2023/10/18 01:28:21;;;;;;;17.83;5.30;;;;;;;;;;5067866;28;20024;-40
2023/10/18 01:30:48;;;;;;;18.80;8.32;;;;;;;;;;5064176;28;20051;-45
2023/10/18 01:33:15;;;;;;;23.27;9.23;;;;;;;;;;5079656;28;20029;-42
2023/10/18 01:35:50;;;;;;;16.88;8.73;;;;;;;;;;5084951;28;20051;-37
2023/10/18 01:38:20;;;;;;;32.33;14.90;;;;;;;;;;5102175;28;20050;-41
2023/10/18 01:40:52;;;;;;;15.13;6.65;;;;;;;;;;5083885;28;20028;-46
2023/10/18 01:43:19;;;;;;;16.55;9.55;;;;;;;;;;5077695;28;20029;-39
2023/10/18 01:45:48;;;;;;;16.50;6.45;;;;;;;;;;5081550;28;20047;-40
2023/10/18 01:48:18;;;;;;;14.55;5.53;;;;;;;;;;5083302;28;20180;-45
2023/10/18 01:50:46;;;;;;;11.15;5.22;;;;;;;;;;5082310;28;20350;-44
2023/10/18 01:53:23;;;;;;;16.15;5.50;;;;;;;;;;5083709;28;20036;-39
2023/10/18 01:55:52;;;;;;;28.50;12.55;;;;;;;;;;5083652;28;20028;-46
2023/10/18 01:58:24;;;;;;;12.70;7.45;;;;;;;;;;5084224;28;20036;-41
2023/10/18 02:00:53;;;;;;;18.77;5.43;;;;;;;;;;5083708;28;20059;-50
2023/10/18 02:03:21;;;;;;;9.10;4.70;;;;;;;;;;5083879;28;20343;-40
2023/10/18 02:05:48;;;;;;;9.20;4.82;;;;;;;;;;5083223;28;20020;-39
2023/10/18 02:08:18;;;;;;;12.35;5.18;;;;;;;;;;5080359;28;20096;-40
2023/10/18 02:10:45;;;;;;;10.52;4.75;;;;;;;;;;5064093;28;20087;-41
2023/10/18 02:13:15;;;;;;;13.50;4.75;;;;;;;;;;5063893;28;20040;-41
2023/10/18 02:15:42;;;;;;;12.85;4.43;;;;;;;;;;5063814;28;20029;-46
2023/10/18 02:18:14;;;;;;;17.63;6.90;;;;;;;;;;5063812;28;20370;-40
2023/10/18 02:20:51;;;;;;;20.02;13.68;;;;;;;;;;5064091;28;20213;-41
2023/10/18 02:23:21;;;;;;;35.30;25.23;;;;;;;;;;5073946;28;20036;-45
2023/10/18 02:25:49;;;;;;;28.92;24.45;;;;;;;;;;5083630;28;20039;-43
2023/10/18 02:28:23;;;;;;;35.28;23.92;;;;;;;;;;5083603;28;20027;-46
2023/10/18 02:30:57;;;;;;;30.45;20.80;;;;;;;;;;5083777;28;20017;-38
2023/10/18 02:33:36;;;;;;;25.90;17.60;;;;;;;;;;5083591;28;20054;-53
2023/10/18 02:36:10;;;;;;;24.23;14.88;;;;;;;;;;5089002;28;20056;-49
2023/10/18 02:38:38;;;;;;;13.50;8.60;;;;;;;;;;5104132;28;20045;-48
2023/10/18 02:41:21;;;;;;;13.65;6.25;;;;;;;;;;5106229;28;20339;-48
2023/10/18 02:44:11;;;;;;;10.57;5.80;;;;;;;;;;5108320;28;20043;-47
2023/10/18 02:46:34;;;;;;;19.38;5.05;;;;;;;;;;5106884;28;20028;-59
2023/10/18 02:49:01;;;;;;;12.68;5.00;;;;;;;;;;5108341;28;20032;-47
2023/10/18 02:51:28;;;;;;;11.00;4.80;;;;;;;;;;5108065;28;20027;-52
2023/10/18 02:56:37;;;;;;;6.53;4.53;;;;;;;;;;5107913;28;20020;-46
2023/10/18 02:59:07;;;;;;;9.50;4.45;;;;;;;;;;5099554;28;20095;-48
2023/10/18 03:01:34;;;;;;;5.65;4.30;;;;;;;;;;5087537;28;20066;-55
2023/10/18 03:04:01;;;;;;;11.50;4.78;;;;;;;;;;5087313;28;20099;-48
2023/10/18 03:06:28;;;;;;;8.00;4.18;;;;;;;;;;5087458;28;20035;-49
2023/10/18 03:08:58;;;;;;;6.75;4.32;;;;;;;;;;5086337;28;20035;-54
2023/10/18 03:11:25;;;;;;;6.32;4.50;;;;;;;;;;5080376;28;20216;-45
2023/10/18 03:13:52;;;;;;;8.15;4.60;;;;;;;;;;5070343;28;20025;-53
2023/10/18 03:16:38;;;;;;;7.22;4.45;;;;;;;;;;5067248;28;20075;-49
2023/10/18 03:19:12;;;;;;;6.65;4.40;;;;;;;;;;5067422;28;20017;-53
2023/10/18 03:21:41;;;;;;;7.97;4.35;;;;;;;;;;5067041;28;20052;-53
2023/10/18 03:24:12;;;;;;;9.55;4.32;;;;;;;;;;5084195;28;20141;-48
2023/10/18 03:26:40;;;;;;;6.25;4.15;;;;;;;;;;5085709;28;20032;-52
2023/10/18 03:29:25;;;;;;;7.72;4.10;;;;;;;;;;5087083;28;20024;-48
2023/10/18 03:31:52;;;;;;;7.13;3.90;;;;;;;;;;5086937;28;20025;-51
2023/10/18 03:34:18;;;;;;;7.68;3.97;;;;;;;;;;5086789;28;20049;-48
2023/10/18 03:36:54;;;;;;;5.35;3.80;;;;;;;;;;5086929;28;20220;-46
2023/10/18 03:39:25;;;;;;;5.32;3.78;;;;;;;;;;5087179;28;20083;-52
2023/10/18 03:41:53;;;;;;;5.32;3.63;;;;;;;;;;5086548;28;20266;-46
2023/10/18 03:44:32;;;;;;;6.25;3.88;;;;;;;;;;5086987;28;20031;-55
2023/10/18 03:47:11;;;;;;;4.18;3.60;;;;;;;;;;5086820;28;20095;-45
2023/10/18 03:49:38;;;;;;;5.63;3.92;;;;;;;;;;5086978;28;20024;-46
2023/10/18 03:54:47;;;;;;;7.68;3.90;;;;;;;;;;5086921;28;20029;-51
2023/10/18 03:57:18;;;;;;;8.07;3.80;;;;;;;;;;5086412;28;20016;-46
2023/10/18 03:59:46;;;;;;;5.45;3.47;;;;;;;;;;5086833;28;20040;-44
2023/10/18 04:02:36;;;;;;;4.35;3.55;;;;;;;;;;5086391;28;20016;-44
2023/10/18 04:05:13;;;;;;;8.18;4.07;;;;;;;;;;5086190;28;20040;-48
2023/10/18 04:07:41;;;;;;;8.32;3.78;;;;;;;;;;5085904;28;20320;-48
2023/10/18 04:10:17;;;;;;;8.63;3.60;;;;;;;;;;5086717;28;20039;-44
2023/10/18 04:12:44;;;;;;;6.80;3.80;;;;;;;;;;5086231;28;20036;-47
2023/10/18 04:15:29;;;;;;;8.82;3.63;;;;;;;;;;5086289;28;20070;-45
2023/10/18 04:20:35;;;;;;;6.82;3.72;;;;;;;;;;5086126;28;20028;-45
2023/10/18 04:23:15;;;;;;;5.35;3.95;;;;;;;;;;5085974;28;20040;-45
2023/10/18 04:26:01;;;;;;;4.28;3.13;;;;;;;;;;5085940;28;20228;-44
2023/10/18 04:28:37;;;;;;;4.85;3.45;;;;;;;;;;5079288;28;20043;-49
2023/10/18 04:31:04;;;;;;;6.82;3.53;;;;;;;;;;5066026;28;20047;-52
2023/10/18 04:33:52;;;;;;;3.78;3.20;;;;;;;;;;5065507;28;20260;-46
2023/10/18 04:36:22;;;;;;;6.32;3.80;;;;;;;;;;5065926;28;20208;-45
2023/10/18 04:38:51;;;;;;;5.43;3.50;;;;;;;;;;5065548;28;20202;-44
2023/10/18 04:43:52;;;;;;;4.70;3.60;;;;;;;;;;5065520;28;20021;-45
2023/10/18 04:46:26;;;;;;;3.55;3.17;;;;;;;;;;5065533;28;20041;-49
2023/10/18 04:55:00;;;;;;;5.38;3.17;;;;;;;;;;5065391;28;20013;-44
2023/10/18 04:56:56;;;;;;;6.35;3.60;;;;;;;;;;5061286;28;20064;-46
2023/10/18 05:04:30;;;;;;;5.72;3.90;;;;;;;;;;5068321;28;20025;-44
2023/10/18 05:09:45;;;;;;;6.28;3.63;;;;;;;;;;5064688;28;20021;-47
2023/10/18 05:17:45;;;;;;;5.90;5.03;;;;;;;;;;5064861;28;20328;-49
2023/10/18 05:22:52;;;;;;;10.30;6.05;;;;;;;;;;5064753;28;20055;-45
2023/10/18 05:28:09;;;;;;;5.38;4.63;;;;;;;;;;5064697;28;20055;-47
2023/10/18 05:33:47;;;;;;;6.38;4.30;;;;;;;;;;5064619;28;20078;-46
2023/10/18 05:41:35;;;;;;;5.05;3.88;;;;;;;;;;5084625;28;20103;-51
2023/10/18 05:44:05;;;;;;;4.78;3.70;;;;;;;;;;5084187;28;20036;-45
2023/10/18 05:46:33;;;;;;;8.05;3.60;;;;;;;;;;5084570;28;20047;-43
2023/10/18 05:49:01;;;;;;;5.25;3.72;;;;;;;;;;5084201;28;20017;-43
2023/10/18 05:51:34;;;;;;;4.82;3.78;;;;;;;;;;5084581;28;20024;-55
2023/10/18 05:54:02;;;;;;;7.18;4.10;;;;;;;;;;5084232;28;20028;-49
2023/10/18 05:56:29;;;;;;;5.22;3.78;;;;;;;;;;5084441;28;20059;-48
2023/10/18 06:01:49;;;;;;;4.20;3.45;;;;;;;;;;5084498;28;20016;-47
2023/10/18 06:04:25;;;;;;;8.13;3.78;;;;;;;;;;5084054;28;20039;-52
2023/10/18 06:06:58;;;;;;;6.32;4.40;;;;;;;;;;5084334;28;20099;-50
2023/10/18 06:09:32;;;;;;;5.97;3.90;;;;;;;;;;5083900;28;20021;-44
2023/10/18 06:12:03;;;;;;;6.72;3.70;;;;;;;;;;5083507;28;20020;-45
2023/10/18 06:14:44;;;;;;;5.88;4.20;;;;;;;;;;5083749;28;20070;-43
2023/10/18 06:17:19;;;;;;;6.07;3.72;;;;;;;;;;5084415;28;20032;-43
2023/10/18 06:19:47;;;;;;;6.78;3.83;;;;;;;;;;5083712;28;20316;-43
2023/10/18 06:22:29;;;;;;;5.78;3.70;;;;;;;;;;5084033;28;20020;-44
2023/10/18 06:25:00;;;;;;;5.53;4.95;;;;;;;;;;5083634;28;20033;-48
2023/10/18 06:27:27;;;;;;;9.07;5.20;;;;;;;;;;5083773;28;20026;-48
2023/10/18 06:29:54;;;;;;;7.97;4.97;;;;;;;;;;5083692;28;20129;-48
2023/10/18 06:32:25;;;;;;;6.38;4.20;;;;;;;;;;5083616;28;20062;-48
2023/10/18 06:35:09;;;;;;;6.28;3.80;;;;;;;;;;5083586;28;20255;-42
2023/10/18 06:37:44;;;;;;;5.57;3.58;;;;;;;;;;5083510;28;20056;-43
2023/10/18 06:40:21;;;;;;;5.82;3.75;;;;;;;;;;5083650;28;20051;-47
2023/10/18 06:42:48;;;;;;;4.95;3.83;;;;;;;;;;5083599;28;20043;-50
2023/10/18 06:45:17;;;;;;;5.13;3.53;;;;;;;;;;5083535;28;20021;-43
2023/10/18 06:47:45;;;;;;;8.07;3.72;;;;;;;;;;5083551;28;20091;-51
2023/10/18 06:50:12;;;;;;;7.72;4.30;;;;;;;;;;5083577;28;20326;-43
2023/10/18 06:52:44;;;;;;;8.55;4.05;;;;;;;;;;5083592;28;20189;-44
2023/10/18 06:55:17;;;;;;;5.18;3.92;;;;;;;;;;5083418;28;20024;-44
2023/10/18 06:57:43;;;;;;;;;;;;;;;;;;5083975;28;20024;-46
2023/10/18 07:00:11;;;;;;;6.22;4.47;;;;;;;;;;5083506;28;20030;-46
2023/10/18 07:02:38;;;;;;;5.63;4.22;;;;;;;;;;5077038;28;20044;-42
2023/10/18 07:05:08;;;;;;;6.50;4.20;;;;;;;;;;5069073;28;20021;-47
2023/10/18 07:07:37;;;;;;;5.38;4.20;;;;;;;;;;5063917;28;20025;-42
2023/10/18 07:10:05;;;;;;;5.25;4.00;;;;;;;;;;5072785;28;20212;-43
2023/10/18 07:12:44;;;;;;;4.90;3.80;;;;;;;;;;5083224;28;20021;-51
2023/10/18 07:15:16;;;;;;;5.28;4.07;;;;;;;;;;5083338;28;20029;-45
2023/10/18 07:17:49;;;;;;;8.57;4.20;;;;;;;;;;5083179;28;20085;-54
2023/10/18 07:20:15;;;;;;;6.20;3.90;;;;;;;;;;5083363;28;20301;-52
2023/10/18 07:22:49;;;;;;;5.95;3.58;;;;;;;;;;5083350;28;20040;-51
2023/10/18 07:25:26;;;;;;;8.38;3.53;;;;;;;;;;5083073;28;20080;-50
2023/10/18 07:27:55;;;;;;;6.40;3.33;;;;;;;;;;5084791;28;20039;-46
2023/10/18 07:30:36;;;;;;;4.40;3.53;;;;;;;;;;5086812;28;20027;-50
2023/10/18 07:33:03;;;;;;;5.75;3.53;;;;;;;;;;5086832;28;20032;-49
2023/10/18 07:35:31;;;;;;;4.55;3.65;;;;;;;;;;5086718;28;20040;-49
2023/10/18 07:37:58;;;;;;;4.43;3.40;;;;;;;;;;5086885;28;20354;-49
2023/10/18 07:40:33;;;;;;;8.65;3.60;;;;;;;;;;5086826;28;20083;-46
2023/10/18 07:43:12;;;;;;;4.88;3.88;;;;;;;;;;5086621;28;20085;-56
2023/10/18 07:45:39;;;;;;;5.57;3.80;;;;;;;;;;5086668;28;20073;-46
2023/10/18 07:48:06;;;;;;;5.63;3.70;;;;;;;;;;5086478;28;20024;-48
2023/10/18 07:53:06;;;;;;;5.53;3.72;;;;;;;;;;5086534;28;20209;-45
2023/10/18 07:55:41;;;;;;;9.95;3.53;;;;;;;;;;5086424;28;20028;-45
2023/10/18 07:58:17;;;;;;;4.72;3.50;;;;;;;;;;5086525;28;20038;-44
2023/10/18 08:01:09;;;;;;;6.25;3.40;;;;;;;;;;5086457;28;20036;-51
2023/10/18 08:03:35;;;;;;;6.30;3.92;;;;;;;;;;5086021;28;20102;-47
2023/10/18 08:06:06;;;;;;;4.22;3.80;;;;;;;;;;5086281;28;20308;-43
2023/10/18 08:08:36;;;;;;;6.43;4.35;;;;;;;;;;5086242;28;20393;-49
2023/10/18 08:11:06;;;;;;;9.60;3.97;;;;;;;;;;5086375;28;20017;-44
2023/10/18 08:13:43;;;;;;;8.43;3.83;;;;;;;;;;5085538;28;20101;-49
2023/10/18 08:16:10;;;;;;;8.70;3.80;;;;;;;;;;5086432;28;20051;-47
2023/10/18 08:18:42;;;;;;;4.80;3.65;;;;;;;;;;5086033;28;20043;-46
2023/10/18 08:23:55;;;;;;;5.20;3.95;;;;;;;;;;5085731;28;20039;-44
2023/10/18 08:26:26;;;;;;;6.13;3.60;;;;;;;;;;5086174;28;20028;-46
2023/10/18 08:28:53;;;;;;;5.50;3.65;;;;;;;;;;5085794;28;20032;-51
2023/10/18 08:31:32;;;;;;;6.20;3.65;;;;;;;;;;5086048;28;20138;-48
2023/10/18 08:34:05;;;;;;;9.40;3.55;;;;;;;;;;5085612;28;20111;-51
2023/10/18 08:36:35;;;;;;;6.15;4.07;;;;;;;;;;5085941;28;20303;-55
2023/10/18 08:39:02;;;;;;;4.18;3.63;;;;;;;;;;5078702;28;20338;-49
2023/10/18 08:41:33;;;;;;;7.90;4.13;;;;;;;;;;5072248;28;20101;-49
2023/10/18 08:43:59;;;;;;;5.82;3.60;;;;;;;;;;5065428;28;20096;-46
2023/10/18 08:46:27;;;;;;;5.03;3.95;;;;;;;;;;5065855;28;20029;-44
2023/10/18 08:48:55;;;;;;;4.07;3.00;;;;;;;;;;5065494;28;20033;-53
2023/10/18 08:51:26;;;;;;;6.93;3.70;;;;;;;;;;5065500;28;20021;-47
2023/10/18 08:53:55;;;;;;;9.02;3.85;;;;;;;;;;5065502;28;20092;-48
2023/10/18 08:56:32;;;;;;;7.78;4.00;;;;;;;;;;5065590;28;20331;-49
2023/10/18 08:59:00;;;;;;;7.57;4.07;;;;;;;;;;5065427;28;20092;-47
2023/10/18 09:01:26;;;;;;;9.20;4.00;;;;;;;;;;5065510;28;20029;-45
2023/10/18 09:03:55;;;;;;;8.95;3.58;;;;;;;;;;5065063;28;20328;-53
2023/10/18 09:06:22;;;;;;;8.70;3.90;;;;;;;;;;5065361;28;20027;-45
2023/10/18 09:09:07;;;;;;;4.35;3.30;;;;;;;;;;5065133;28;20043;-45
2023/10/18 09:11:36;;;;;;;5.43;3.55;;;;;;;;;;5065433;28;20024;-50
2023/10/18 09:14:12;;;;;;;4.75;3.53;;;;;;;;;;5064927;28;20177;-43
2023/10/18 09:16:40;;;;;;;11.38;3.92;;;;;;;;;;5065113;28;20029;-45
2023/10/18 09:19:07;;;;;;;7.07;3.70;;;;;;;;;;5064881;28;20075;-48
2023/10/18 09:22:16;;;;;;;4.95;3.60;;;;;;;;;;5065143;28;20433;-47
2023/10/18 09:24:29;;;;;;;6.00;4.00;;;;;;;;;;5059129;28;20075;-45
2023/10/18 09:26:58;;;;;;;5.38;3.60;;;;;;;;;;5064573;28;20033;-47
2023/10/18 09:29:29;;;;;;;5.35;3.35;;;;;;;;;;5064518;28;20021;-49
2023/10/18 09:32:12;;;;;;;10.02;3.90;;;;;;;;;;5065019;28;20036;-47
2023/10/18 09:34:42;;;;;;;6.28;3.90;;;;;;;;;;5064297;28;20059;-49
2023/10/18 09:37:11;;;;;;;17.08;15.68;;;;;;;;;;5067719;28;20036;-45
2023/10/18 09:39:38;;;;;;;52.08;47.88;;;;;;;;;;5072141;28;20020;-48
2023/10/18 09:42:15;;;;;;;40.85;37.17;;;;;;;;;;5064847;28;20465;-44
2023/10/18 09:44:42;;;;;;;23.23;21.15;;;;;;;;;;5064337;28;20076;-44
2023/10/18 09:47:09;;;;;;;22.38;19.05;;;;;;;;;;5064723;28;20028;-43
2023/10/18 09:49:38;;;;;;;12.80;11.32;;;;;;;;;;5063946;28;20033;-53
2023/10/18 09:52:07;;;;;;;9.80;8.73;;;;;;;;;;5064575;28;20025;-42
2023/10/18 09:54:35;;;;;;;11.80;7.65;;;;;;;;;;5064149;28;20025;-43
2023/10/18 09:57:05;;;;;;;7.70;6.80;;;;;;;;;;5064611;28;20305;-45
2023/10/18 09:59:37;;;;;;;10.00;6.53;;;;;;;;;;5064099;28;20025;-44
2023/10/18 10:02:09;;;;;;;;;;;;;;;;;;5064790;28;20021;-41
2023/10/18 10:04:36;;;;;;;8.60;5.10;;;;;;;;;;5064098;28;19909;-41
2023/10/18 10:07:48;;;;;;;8.80;5.53;;;;;;;;;;5064284;28;20020;-52
2023/10/18 10:09:53;;;;;;;13.38;4.63;;;;;;;;;;5056679;28;20107;-47
2023/10/18 10:12:27;;;;;;;7.40;4.57;;;;;;;;;;5063809;28;20115;-50
2023/10/18 10:14:54;;;;;;;8.02;4.40;;;;;;;;;;5063803;28;20273;-45
2023/10/18 10:17:21;;;;;;;9.15;4.15;;;;;;;;;;5063760;28;20040;-46
2023/10/18 10:19:50;;;;;;;12.80;3.83;;;;;;;;;;5063744;28;20379;-44
2023/10/18 10:22:21;;;;;;;8.40;4.10;;;;;;;;;;5063901;28;20045;-44
2023/10/18 10:24:59;;;;;;;10.40;4.40;;;;;;;;;;5064132;28;20029;-47
2023/10/18 10:30:25;;;;;;;7.25;4.05;;;;;;;;;;5063655;28;20017;-45
2023/10/18 10:32:59;;;;;;;9.77;3.95;;;;;;;;;;5063566;28;20044;-50
2023/10/18 10:35:27;;;;;;;7.97;4.20;;;;;;;;;;5063505;28;20333;-48
2023/10/18 10:37:54;;;;;;;10.45;4.65;;;;;;;;;;5063542;28;20045;-47
2023/10/18 10:43:08;;;;;;;12.27;4.03;;;;;;;;;;5070999;28;20029;-52
2023/10/18 10:48:37;;;;;;;;;;;;;;;;;;5065868;28;20144;-45
2023/10/18 10:53:48;;;;;;;12.93;4.40;;;;;;;;;;5081856;28;20021;-45
2023/10/18 10:56:18;;;;;;;14.68;4.93;;;;;;;;;;5063800;28;20029;-46
2023/10/18 10:58:55;;;;;;;9.18;4.90;;;;;;;;;;5063180;28;20070;-49
2023/10/18 11:01:39;;;;;;;14.63;5.20;;;;;;;;;;5064554;28;20104;-46
2023/10/18 11:04:15;;;;;;;9.45;4.20;;;;;;;;;;5067202;28;20202;-44
2023/10/18 11:06:46;;;;;;;9.95;4.60;;;;;;;;;;5067755;28;20039;-54
2023/10/18 11:09:16;;;;;;;13.55;4.53;;;;;;;;;;5067607;28;20052;-52
2023/10/18 11:11:43;;;;;;;19.20;5.65;;;;;;;;;;5067565;28;20062;-44
2023/10/18 11:14:17;;;;;;;7.65;4.60;;;;;;;;;;5067324;28;20033;-54
2023/10/18 11:16:46;;;;;;;22.00;5.18;;;;;;;;;;5065975;28;20243;-46
2023/10/18 11:19:15;;;;;;;10.07;4.93;;;;;;;;;;5066127;28;20198;-56
2023/10/18 11:21:42;;;;;;;9.52;5.28;;;;;;;;;;5066539;28;20021;-49
2023/10/18 11:24:12;;;;;;;13.75;4.68;;;;;;;;;;5065950;28;20025;-45
2023/10/18 11:26:42;;;;;;;15.35;5.75;;;;;;;;;;5065566;28;20028;-41
2023/10/18 11:29:08;;;;;;;17.80;5.70;;;;;;;;;;5065178;28;20025;-44
2023/10/18 11:31:41;;;;;;;15.15;5.10;;;;;;;;;;5064486;28;20039;-40
2023/10/18 11:34:14;;;;;;;23.08;6.18;;;;;;;;;;5064163;28;20385;-49
2023/10/18 11:36:42;;;;;;;17.20;4.90;;;;;;;;;;5065457;28;20029;-40
2023/10/18 11:39:18;;;;;;;18.45;5.65;;;;;;;;;;5065187;28;20037;-40
2023/10/18 11:41:56;;;;;;;28.33;5.60;;;;;;;;;;5068056;28;20017;-42
2023/10/18 11:44:31;;;;;;;26.33;5.35;;;;;;;;;;5067895;28;20041;-40
2023/10/18 11:47:23;;;;;;;15.80;4.85;;;;;;;;;;5067988;28;20021;-39
2023/10/18 11:49:57;;;;;;;15.00;5.25;;;;;;;;;;5067260;28;20212;-41
2023/10/18 11:52:25;;;;;;;13.88;5.07;;;;;;;;;;5067141;28;20028;-43
2023/10/18 11:54:52;;;;;;;12.32;4.93;;;;;;;;;;5067253;28;20031;-38
2023/10/18 11:57:25;;;;;;;15.20;5.00;;;;;;;;;;5067430;28;20031;-39
2023/10/18 11:59:53;;;;;;;16.13;4.82;;;;;;;;;;5066960;28;20028;-38
2023/10/18 12:02:20;;;;;;;12.57;4.75;;;;;;;;;;5067153;28;20017;-43
2023/10/18 12:04:48;;;;;;;10.52;4.60;;;;;;;;;;5066927;28;20293;-41
2023/10/18 12:07:14;;;;;;;9.25;4.65;;;;;;;;;;5067115;28;20101;-42
2023/10/18 12:09:45;;;;;;;15.90;4.60;;;;;;;;;;5067116;28;20040;-42
2023/10/18 12:12:19;;;;;;;13.32;5.28;;;;;;;;;;5067643;28;20021;-42
2023/10/18 12:14:46;;;;;;;14.07;5.10;;;;;;;;;;5066479;28;20028;-38
2023/10/18 12:17:13;;;;;;;18.50;5.35;;;;;;;;;;5067204;28;20083;-44
2023/10/18 12:19:40;;;;;;;10.20;4.90;;;;;;;;;;5066491;28;20048;-43
2023/10/18 12:22:15;;;;;;;10.20;5.07;;;;;;;;;;5067454;28;20017;-38
2023/10/18 12:24:42;;;;;;;9.95;4.88;;;;;;;;;;5066215;28;20096;-41
2023/10/18 12:29:54;;;;;;;9.60;4.40;;;;;;;;;;5066190;28;20028;-40
2023/10/18 12:32:27;;;;;;;6.57;4.32;;;;;;;;;;5066518;28;20159;-40
2023/10/18 12:34:57;;;;;;;14.90;5.28;;;;;;;;;;5066444;28;20053;-42
2023/10/18 12:37:32;;;;;;;10.82;5.00;;;;;;;;;;5066245;28;20312;-45
2023/10/18 12:40:14;;;;;;;13.00;4.55;;;;;;;;;;5066564;28;20063;-39
2023/10/18 12:42:41;;;;;;;8.23;5.00;;;;;;;;;;5066239;28;20024;-39
2023/10/18 12:45:18;;;;;;;11.52;5.13;;;;;;;;;;5065897;28;20220;-40
2023/10/18 12:47:47;;;;;;;11.68;4.85;;;;;;;;;;5065902;28;20024;-40
2023/10/18 12:50:18;;;;;;;7.20;4.28;;;;;;;;;;5065854;28;20345;-44
2023/10/18 12:52:46;;;;;;;11.52;5.00;;;;;;;;;;5066489;28;20029;-39
2023/10/18 12:57:59;;;;;;;10.30;4.95;;;;;;;;;;5066103;28;20092;-41
2023/10/18 13:00:32;;;;;;;13.60;4.65;;;;;;;;;;5066143;28;20025;-44
2023/10/18 13:05:40;;;;;;;11.75;4.30;;;;;;;;;;5066242;28;20104;-40
2023/10/18 13:08:22;;;;;;;12.50;4.20;;;;;;;;;;5065537;28;20028;-40
2023/10/18 13:10:57;;;;;;;;;;;;;;;;;;5066148;28;20291;-42
2023/10/18 13:13:29;;;;;;;13.02;4.30;;;;;;;;;;5065790;28;19912;-40
2023/10/18 13:15:57;;;;;;;7.28;4.13;;;;;;;;;;5066041;28;20036;-40
2023/10/18 13:18:26;;;;;;;8.63;4.30;;;;;;;;;;5065552;28;20054;-42
2023/10/18 13:20:58;;;;;;;11.32;4.78;;;;;;;;;;5065558;28;20032;-39
2023/10/18 13:23:44;;;;;;;9.90;4.60;;;;;;;;;;5065292;28;20028;-37
2023/10/18 13:26:11;;;;;;;9.32;4.32;;;;;;;;;;5063773;28;20096;-44
2023/10/18 13:31:24;;;;;;;9.05;4.43;;;;;;;;;;5065163;28;20029;-43
2023/10/18 13:33:54;;;;;;;6.75;3.72;;;;;;;;;;5064918;28;20277;-46
2023/10/18 13:36:24;;;;;;;12.45;4.40;;;;;;;;;;5065574;28;20040;-45
2023/10/18 13:38:51;;;;;;;5.35;4.07;;;;;;;;;;5065084;28;20096;-42
2023/10/18 13:41:18;;;;;;;6.75;4.32;;;;;;;;;;5065377;28;20025;-45
2023/10/18 13:43:45;;;;;;;7.60;3.75;;;;;;;;;;5064737;28;20325;-42
2023/10/18 13:46:22;;;;;;;6.43;4.35;;;;;;;;;;5064719;28;20037;-40
2023/10/18 13:48:52;;;;;;;6.22;3.97;;;;;;;;;;5064888;28;20032;-41
2023/10/18 13:51:19;;;;;;;10.80;4.20;;;;;;;;;;5065262;28;20041;-41
2023/10/18 13:53:46;;;;;;;8.63;4.70;;;;;;;;;;5064961;28;20080;-40
2023/10/18 13:56:15;;;;;;;8.70;4.10;;;;;;;;;;5065399;28;20092;-42
2023/10/18 13:58:42;;;;;;;12.23;4.30;;;;;;;;;;5064721;28;20037;-41
2023/10/18 14:01:17;;;;;;;7.85;4.28;;;;;;;;;;5064768;28;20087;-47
2023/10/18 14:03:47;;;;;;;7.15;4.53;;;;;;;;;;5064366;28;20067;-46
2023/10/18 14:06:14;;;;;;;8.02;4.00;;;;;;;;;;5064600;28;20209;-43
2023/10/18 14:08:45;;;;;;;10.50;4.45;;;;;;;;;;5064716;28;20025;-48
2023/10/18 14:11:15;;;;;;;7.22;4.15;;;;;;;;;;5065297;28;20032;-45
2023/10/18 14:13:45;;;;;;;11.25;4.55;;;;;;;;;;5064647;28;20169;-42
2023/10/18 14:16:18;;;;;;;12.65;4.75;;;;;;;;;;5065040;28;20033;-42
2023/10/18 14:18:46;;;;;;;10.93;4.47;;;;;;;;;;5064507;28;20070;-42
2023/10/18 14:21:13;;;;;;;10.05;4.80;;;;;;;;;;5064577;28;20043;-46
2023/10/18 14:23:43;;;;;;;18.80;4.72;;;;;;;;;;5064391;28;20116;-41
2023/10/18 14:26:10;;;;;;;7.20;4.30;;;;;;;;;;5064017;28;20189;-45
2023/10/18 14:28:37;;;;;;;10.35;5.07;;;;;;;;;;5064435;28;20092;-41
2023/10/18 14:31:06;;;;;;;15.95;4.65;;;;;;;;;;5064862;28;20293;-48
2023/10/18 14:33:32;;;;;;;10.48;4.45;;;;;;;;;;5063981;28;20027;-45
2023/10/18 14:36:06;;;;;;;14.73;4.97;;;;;;;;;;5064522;28;20029;-45
2023/10/18 14:38:34;;;;;;;21.23;5.53;;;;;;;;;;5064519;28;20063;-46
2023/10/18 14:41:02;;;;;;;18.95;5.35;;;;;;;;;;5064601;28;20036;-51
2023/10/18 14:43:30;;;;;;;34.47;6.13;;;;;;;;;;5064484;28;20036;-48
2023/10/18 14:46:00;;;;;;;36.58;6.20;;;;;;;;;;5064008;28;20028;-44
2023/10/18 14:48:26;;;;;;;21.75;6.28;;;;;;;;;;5064676;28;20029;-49
2023/10/18 14:50:53;;;;;;;34.33;6.45;;;;;;;;;;5064424;28;20025;-46
2023/10/18 14:53:19;;;;;;;33.03;6.32;;;;;;;;;;5064505;28;20056;-51
2023/10/18 14:55:46;;;;;;;29.45;6.90;;;;;;;;;;5064738;28;20037;-44
2023/10/18 14:58:13;;;;;;;36.08;6.93;;;;;;;;;;5064002;28;20075;-53
2023/10/18 15:00:40;;;;;;;33.55;7.00;;;;;;;;;;5064345;28;20192;-49
2023/10/18 15:03:10;;;;;;;35.13;6.60;;;;;;;;;;5064514;28;20033;-48
2023/10/18 15:05:38;;;;;;;41.88;7.63;;;;;;;;;;5064395;28;20036;-46
2023/10/18 15:08:07;;;;;;;40.70;7.20;;;;;;;;;;5063923;28;20074;-53
2023/10/18 15:10:34;;;;;;;38.58;6.97;;;;;;;;;;5064098;28;20033;-45
2023/10/18 15:13:01;;;;;;;27.65;6.80;;;;;;;;;;5064008;28;20091;-45
2023/10/18 15:15:28;;;;;;;38.20;7.80;;;;;;;;;;5063598;28;20040;-53
2023/10/18 15:17:55;;;;;;;42.50;6.93;;;;;;;;;;5064233;28;20068;-48
2023/10/18 15:20:22;;;;;;;31.02;7.32;;;;;;;;;;5064286;28;20248;-48
2023/10/18 15:22:49;;;;;;;34.97;7.10;;;;;;;;;;5064104;28;20021;-45
2023/10/18 15:25:16;;;;;;;35.30;7.10;;;;;;;;;;5064094;28;20043;-45
2023/10/18 15:27:43;;;;;;;44.65;8.05;;;;;;;;;;5063700;28;20332;-49
2023/10/18 15:30:10;;;;;;;38.83;7.47;;;;;;;;;;5063744;28;20016;-47
2023/10/18 15:32:37;;;;;;;42.65;8.50;;;;;;;;;;5063546;28;20033;-50
2023/10/18 15:35:05;;;;;;;43.88;7.28;;;;;;;;;;5064207;28;20048;-55
2023/10/18 15:37:32;;;;;;;41.80;7.07;;;;;;;;;;5063270;28;20074;-49
2023/10/18 15:39:58;;;;;;;44.00;7.43;;;;;;;;;;5063587;28;20040;-44
2023/10/18 15:42:25;;;;;;;47.58;7.35;;;;;;;;;;5063608;28;20048;-47
2023/10/18 15:44:55;;;;;;;28.65;6.95;;;;;;;;;;5063666;28;20024;-48
2023/10/18 15:47:25;;;;;;;39.58;7.35;;;;;;;;;;5063614;28;20048;-47
2023/10/18 15:49:51;;;;;;;35.45;7.43;;;;;;;;;;5066429;28;20025;-46
2023/10/18 15:52:20;;;;;;;33.00;6.72;;;;;;;;;;5067128;28;20032;-47
2023/10/18 15:54:49;;;;;;;42.30;7.07;;;;;;;;;;5066753;28;20321;-48
2023/10/18 15:57:16;;;;;;;29.15;6.78;;;;;;;;;;5066809;28;20088;-49
2023/10/18 15:59:42;;;;;;;31.63;6.82;;;;;;;;;;5066635;28;20182;-51
2023/10/18 16:02:12;;;;;;;31.60;6.45;;;;;;;;;;5067251;28;20324;-56
2023/10/18 16:04:40;;;;;;;27.33;6.00;;;;;;;;;;5066658;28;20044;-50
2023/10/18 16:07:07;;;;;;;27.17;6.85;;;;;;;;;;5067061;28;20017;-53
2023/10/18 16:09:34;;;;;;;29.17;6.38;;;;;;;;;;5066506;28;20071;-53